Impacts TAF Board
For situational awareness. Not to be used for flight planning purposes.
IDs:

KDFW - Dallas-Ft Worth Intl, TX, US

Issued at 2330 UTC 05 Dec 2019
Updated at 0121 UTC 06 Dec 2019
Potential Impact None Slight Moderate High
Time0053Z 06/02Z 06/03Z 06/04Z 06/05Z 06/06Z 06/07Z 06/08Z 06/09Z 06/10Z 06/11Z 06/12Z 06/13Z 06/14Z>>
Type OBS PRVL PRVL PRVL PRVL PRVL PRVL PRVL PRVL PRVL PRVL PRVL PRVL PRVL
VIS 10 >6 >6 >6 >6 >6 >6 >6 >6 >6 >6 >6 >6 >6
CIG -- 300 300 300 300 -- -- -- -- -- -- -- -- --
Cover SCT BKN BKN BKN BKN FEW FEW FEW FEW FEW FEW FEW FEW FEW
FltCat VFR VFR VFR VFR VFR VFR VFR VFR VFR VFR VFR VFR VFR VFR
WX -- -- -- -- -- -- -- -- -- -- -- -- -- --
WDir 170 170 170 170 170 220 220 220 310 310 310 310 310 310
WSpd 10 10 10 10 10 14 14 14 14 14 14 14 14 14
WGst -- -- -- -- -- -- -- -- 24 24 24 24 24 24
Raw TAF
KDFW 052330Z 0600/0706 17010KT P6SM SCT110 BKN300
  FM060600 22014KT P6SM FEW300
  FM060900 31014G24KT P6SM FEW300
  FM061600 34018G28KT P6SM BKN024
  FM062100 35015KT P6SM BKN045
  FM070200 36007KT P6SM SCT050 BKN300


Raw METAR
KDFW 060053Z 17010KT 10SM FEW110 SCT250 19/14 A2986 RMK AO2 SLP108 T01890139
KDFW 052353Z 16009KT 10SM FEW110 SCT250 19/14 A2985 RMK AO2 SLP102 T01940139 10228 20194 53005
KDFW 052253Z 17010KT 10SM SCT110 BKN250 21/14 A2984 RMK AO2 SLP099 T02110139

METAR Board
Radar Display
Forecast Discussion
For situational awareness. Not to be used for flight planning purposes.